Time;durP1;ratioP1;P1;durP2;ratioP2;P2;SDS_P1;SDS_P2;PMS_P1;PMS_P2;Temp;Humidity;BMP_temperature;BMP_pressure;BME280_temperature;BME280_humidity;BME280_pressure;Samples;Min_cycle;Max_cycle;Signal;HPM_P1;HPM_P2
2021/05/17 00:01:53;;;;;;;6.07;5.00;;;10.20;99.90;;;;;;5057884;28;20476;-75
2021/05/17 00:04:29;;;;;;;8.90;5.68;;;10.20;99.90;;;;;;5056892;28;20096;-75
2021/05/17 00:06:56;;;;;;;8.63;6.15;;;10.10;99.90;;;;;;5056622;28;20009;-75
2021/05/17 00:09:21;;;;;;;6.78;5.05;;;10.10;99.90;;;;;;5054272;28;20025;-75
2021/05/17 00:11:47;;;;;;;7.90;5.88;;;10.10;99.90;;;;;;5070253;28;20021;-75
2021/05/17 00:14:13;;;;;;;8.23;5.55;;;10.00;99.90;;;;;;5054730;28;20092;-75
2021/05/17 00:16:39;;;;;;;6.22;5.43;;;10.10;99.90;;;;;;5053916;28;20013;-75
2021/05/17 00:19:05;;;;;;;8.40;6.45;;;10.00;99.90;;;;;;5058286;28;20017;-75
2021/05/17 00:21:31;;;;;;;9.00;6.20;;;10.00;99.90;;;;;;5055794;28;20024;-74
2021/05/17 00:23:56;;;;;;;8.35;5.90;;;10.00;99.90;;;;;;5055940;28;20539;-75
2021/05/17 00:26:22;;;;;;;10.20;6.70;;;10.00;99.90;;;;;;5055196;28;20388;-75
2021/05/17 00:28:48;;;;;;;8.98;6.97;;;10.00;99.90;;;;;;5053101;28;20484;-75
2021/05/17 00:31:14;;;;;;;7.80;7.00;;;10.00;99.90;;;;;;5054723;28;20078;-75
2021/05/17 00:33:40;;;;;;;9.98;7.07;;;10.00;99.90;;;;;;5052248;28;20052;-75
2021/05/17 00:36:06;;;;;;;8.90;6.85;;;9.90;99.90;;;;;;5057972;28;20059;-75
2021/05/17 00:38:32;;;;;;;11.50;7.35;;;9.90;99.90;;;;;;5055499;28;20037;-75
2021/05/17 00:40:58;;;;;;;10.38;7.25;;;9.90;99.90;;;;;;5056345;28;20025;-75
2021/05/17 00:43:39;;;;;;;10.25;7.35;;;9.90;99.90;;;;;;5069947;28;20480;-75
2021/05/17 00:46:07;;;;;;;12.88;7.07;;;9.90;99.90;;;;;;5054823;28;20023;-75
2021/05/17 00:48:35;;;;;;;9.27;7.28;;;9.90;99.90;;;;;;5053556;28;20013;-75
2021/05/17 00:51:01;;;;;;;12.63;7.90;;;9.80;99.90;;;;;;5053292;28;20070;-75
2021/05/17 00:53:27;;;;;;;11.73;8.07;;;9.80;99.90;;;;;;5054094;28;20535;-75
2021/05/17 00:55:53;;;;;;;12.55;8.20;;;9.90;99.90;;;;;;5052431;28;20089;-75
2021/05/17 00:58:18;;;;;;;12.13;8.60;;;9.80;99.90;;;;;;5053551;28;20036;-75
2021/05/17 01:00:44;;;;;;;9.82;7.50;;;9.90;99.90;;;;;;5053091;28;20017;-75
2021/05/17 01:03:10;;;;;;;10.73;8.10;;;9.90;99.90;;;;;;5070652;28;20021;-75
2021/05/17 01:05:37;;;;;;;17.60;9.13;;;9.90;99.90;;;;;;5056672;28;20024;-75
2021/05/17 01:08:03;;;;;;;10.32;8.43;;;9.90;99.90;;;;;;5069785;28;20086;-75
2021/05/17 01:10:31;;;;;;;13.45;8.07;;;9.90;99.90;;;;;;5055132;28;20021;-75
2021/05/17 01:12:56;;;;;;;13.25;8.38;;;9.90;99.90;;;;;;5052292;28;20044;-75
2021/05/17 01:15:23;;;;;;;10.73;7.85;;;9.90;99.90;;;;;;5068704;28;20468;-75
2021/05/17 01:17:49;;;;;;;10.82;8.05;;;9.90;99.90;;;;;;5052666;28;20017;-75
2021/05/17 01:20:21;;;;;;;11.20;8.07;;;9.90;99.90;;;;;;5055025;28;20017;-75
2021/05/17 01:25:41;;;;;;;11.88;7.28;;;9.90;99.90;;;;;;5040203;28;20412;-75
2021/05/17 01:28:08;;;;;;;11.38;7.80;;;9.80;99.90;;;;;;5053660;28;20027;-75
2021/05/17 01:30:34;;;;;;;11.30;7.47;;;9.90;99.90;;;;;;5068800;28;20087;-75
2021/05/17 01:33:00;;;;;;;9.50;6.55;;;9.80;99.90;;;;;;5053304;28;20025;-75
2021/05/17 01:35:25;;;;;;;12.50;7.57;;;9.90;99.90;;;;;;5050596;28;20098;-75
2021/05/17 01:37:51;;;;;;;8.65;6.60;;;9.90;99.90;;;;;;5057128;28;20078;-75
2021/05/17 01:40:20;;;;;;;9.10;6.63;;;9.90;99.90;;;;;;5054345;28;20433;-75
2021/05/17 01:42:47;;;;;;;8.63;6.40;;;9.90;99.90;;;;;;5055279;28;20028;-75
2021/05/17 01:45:13;;;;;;;8.52;6.13;;;9.90;99.90;;;;;;5053425;28;20083;-75
2021/05/17 01:47:41;;;;;;;13.15;5.63;;;9.90;99.90;;;;;;5053163;28;20021;-75
2021/05/17 01:50:09;;;;;;;9.65;5.97;;;10.00;99.90;;;;;;5053931;28;20013;-75
2021/05/17 01:52:36;;;;;;;9.73;6.20;;;10.00;99.90;;;;;;5053620;28;20049;-75
2021/05/17 01:55:07;;;;;;;9.55;6.05;;;10.00;99.90;;;;;;5054147;28;20128;-75
2021/05/17 01:57:33;;;;;;;11.98;6.75;;;10.00;99.90;;;;;;5052875;28;20480;-75
2021/05/17 02:00:00;;;;;;;9.52;6.20;;;10.00;99.90;;;;;;5067974;28;20025;-75
2021/05/17 02:02:29;;;;;;;7.88;6.75;;;10.00;99.90;;;;;;5054562;28;20017;-75
2021/05/17 02:04:55;;;;;;;10.60;7.45;;;9.90;99.90;;;;;;5054462;28;20070;-75
2021/05/17 02:07:22;;;;;;;11.07;6.68;;;9.90;99.90;;;;;;5071108;28;20028;-75
2021/05/17 02:09:52;;;;;;;11.18;7.00;;;9.80;99.90;;;;;;5053579;28;20070;-75
2021/05/17 02:12:23;;;;;;;11.77;7.55;;;9.80;99.90;;;;;;5054120;28;20111;-75
2021/05/17 02:14:55;;;;;;;19.27;8.20;;;9.80;99.90;;;;;;5052637;28;20023;-75
2021/05/17 02:17:23;;;;;;;12.00;7.25;;;9.80;99.90;;;;;;5051119;28;20032;-75
2021/05/17 02:19:49;;;;;;;11.15;7.38;;;9.70;99.90;;;;;;5054608;28;20499;-75
2021/05/17 02:22:19;;;;;;;14.32;8.55;;;9.70;99.90;;;;;;5053779;28;20029;-75
2021/05/17 02:24:46;;;;;;;10.30;7.65;;;9.70;99.90;;;;;;5053761;28;20025;-75
2021/05/17 02:27:14;;;;;;;13.05;7.85;;;9.70;99.90;;;;;;5053371;28;20045;-75
2021/05/17 02:29:39;;;;;;;12.55;7.93;;;9.60;99.90;;;;;;5052770;28;20017;-75
2021/05/17 02:32:05;;;;;;;10.63;7.68;;;9.70;99.90;;;;;;5052476;28;20078;-75
2021/05/17 02:34:31;;;;;;;11.85;8.73;;;9.70;99.90;;;;;;5053492;28;20040;-75
2021/05/17 02:36:57;;;;;;;11.65;8.60;;;9.70;99.90;;;;;;5057827;28;20045;-75
2021/05/17 02:39:22;;;;;;;18.52;10.63;;;9.70;99.90;;;;;;5075244;28;20021;-75
2021/05/17 02:41:51;;;;;;;12.20;7.97;;;9.70;99.90;;;;;;5057349;28;20021;-75
2021/05/17 02:44:17;;;;;;;13.90;9.23;;;9.70;99.90;;;;;;5057416;28;20025;-75
2021/05/17 02:46:43;;;;;;;10.90;8.18;;;9.70;99.90;;;;;;5056765;28;20032;-75
2021/05/17 02:49:09;;;;;;;14.07;7.93;;;9.70;99.90;;;;;;5054755;28;20017;-75
2021/05/17 02:51:34;;;;;;;15.95;8.80;;;9.70;99.90;;;;;;5057691;28;20051;-75
2021/05/17 02:54:33;;;;;;;13.23;8.27;;;9.70;99.90;;;;;;5057428;28;20434;-75
2021/05/17 02:56:58;;;;;;;13.68;7.97;;;9.80;99.90;;;;;;5065342;28;20090;-75
2021/05/17 02:59:47;;;;;;;13.00;8.52;;;9.80;99.90;;;;;;5055611;28;20380;-75
2021/05/17 03:02:17;;;;;;;11.48;7.82;;;9.90;99.90;;;;;;5073308;28;20508;-75
2021/05/17 03:04:55;;;;;;;13.70;8.55;;;9.90;99.90;;;;;;5057466;28;20072;-75
2021/05/17 03:07:24;;;;;;;12.65;8.15;;;9.90;99.90;;;;;;5058992;28;20020;-75
2021/05/17 03:09:50;;;;;;;12.30;7.53;;;10.00;99.90;;;;;;5056453;28;20468;-75
2021/05/17 03:12:20;;;;;;;12.25;7.97;;;10.00;99.90;;;;;;5057192;28;20032;-75
2021/05/17 03:14:49;;;;;;;14.88;9.25;;;10.00;99.90;;;;;;5054370;28;20170;-75
2021/05/17 03:17:17;;;;;;;14.87;8.50;;;10.10;99.90;;;;;;5054079;28;20511;-75
2021/05/17 03:19:43;;;;;;;17.20;8.90;;;10.10;99.90;;;;;;5057414;28;20385;-75
2021/05/17 03:22:09;;;;;;;12.07;7.60;;;10.10;99.90;;;;;;5057347;28;20527;-75
2021/05/17 03:24:37;;;;;;;12.63;7.43;;;10.10;99.90;;;;;;5056936;28;20118;-75
2021/05/17 03:27:23;;;;;;;12.27;8.38;;;10.10;99.90;;;;;;5056104;28;20025;-76
2021/05/17 03:29:50;;;;;;;13.65;7.78;;;10.10;99.90;;;;;;5055656;28;20361;-76
2021/05/17 03:32:16;;;;;;;11.02;6.95;;;10.00;99.90;;;;;;5055410;28;20028;-76
2021/05/17 03:34:42;;;;;;;13.98;7.68;;;10.00;99.90;;;;;;5055168;28;20021;-75
2021/05/17 03:37:07;;;;;;;17.25;7.70;;;10.00;99.90;;;;;;5056883;28;20044;-75
2021/05/17 03:39:33;;;;;;;11.80;6.97;;;10.00;99.90;;;;;;5058865;28;20025;-75
2021/05/17 03:42:00;;;;;;;11.27;6.90;;;10.00;99.90;;;;;;5056180;28;20044;-75
2021/05/17 03:44:26;;;;;;;17.15;8.25;;;10.00;99.90;;;;;;5056493;28;20439;-75
2021/05/17 03:46:51;;;;;;;14.25;7.55;;;10.00;99.90;;;;;;5054054;28;20105;-75
2021/05/17 03:49:17;;;;;;;15.95;7.85;;;10.00;99.90;;;;;;5054933;28;20021;-75
2021/05/17 03:51:43;;;;;;;12.43;7.13;;;10.00;99.90;;;;;;5057689;28;20534;-75
2021/05/17 03:54:08;;;;;;;11.77;7.32;;;10.00;99.90;;;;;;5070820;28;20472;-75
2021/05/17 03:56:34;;;;;;;14.27;7.32;;;10.00;99.90;;;;;;5055258;28;20071;-75
2021/05/17 03:58:59;;;;;;;13.40;6.30;;;10.10;99.90;;;;;;5055243;28;20025;-75
2021/05/17 04:01:25;;;;;;;14.93;6.80;;;10.10;99.90;;;;;;5053166;28;20025;-75
2021/05/17 04:03:53;;;;;;;14.82;7.50;;;10.10;99.90;;;;;;5058716;28;20025;-75
2021/05/17 04:06:29;;;;;;;14.88;7.65;;;10.10;99.90;;;;;;5054863;28;20391;-75
2021/05/17 04:14:39;;;;;;;11.48;7.07;;;10.20;99.90;;;;;;5052284;28;20094;-75
2021/05/17 04:17:05;;;;;;;13.52;7.00;;;10.10;99.90;;;;;;5069782;28;20024;-74
2021/05/17 04:19:31;;;;;;;10.93;6.65;;;10.20;99.90;;;;;;5053792;28;20025;-75
2021/05/17 04:21:56;;;;;;;12.63;6.82;;;10.20;99.90;;;;;;5071340;28;20021;-75
2021/05/17 04:24:22;;;;;;;12.27;6.50;;;10.20;99.90;;;;;;5057445;28;20103;-75
2021/05/17 04:26:47;;;;;;;12.75;6.20;;;10.20;99.90;;;;;;5055098;28;20056;-75
2021/05/17 04:29:13;;;;;;;11.57;6.47;;;10.20;99.90;;;;;;5055904;28;20020;-75
2021/05/17 04:31:38;;;;;;;10.35;6.15;;;10.20;99.90;;;;;;5069747;28;20074;-75
2021/05/17 04:34:04;;;;;;;15.82;6.43;;;10.20;99.90;;;;;;5053997;28;20484;-75
2021/05/17 04:36:31;;;;;;;10.15;6.25;;;10.20;99.90;;;;;;5068466;28;20072;-75
2021/05/17 04:38:59;;;;;;;10.82;7.00;;;10.30;99.90;;;;;;5055806;28;20021;-75
2021/05/17 04:41:24;;;;;;;10.57;6.70;;;10.30;99.90;;;;;;5057210;28;20017;-75
2021/05/17 04:43:50;;;;;;;12.60;6.07;;;10.30;99.90;;;;;;5053541;28;20017;-75
2021/05/17 04:46:16;;;;;;;10.40;6.55;;;10.30;99.90;;;;;;5070962;28;20020;-75
2021/05/17 04:48:49;;;;;;;8.32;5.70;;;10.30;99.90;;;;;;5053852;28;20017;-75
2021/05/17 04:51:19;;;;;;;9.93;5.70;;;10.40;99.90;;;;;;5055005;28;20420;-75
2021/05/17 04:53:44;;;;;;;;;;;10.40;99.90;;;;;;5056519;28;20021;-75
2021/05/17 04:56:10;;;;;;;7.50;5.28;;;10.40;99.90;;;;;;5053265;28;19909;-75
2021/05/17 04:58:36;;;;;;;9.95;5.93;;;10.30;99.90;;;;;;5054423;28;20021;-76
2021/05/17 05:01:02;;;;;;;6.72;5.22;;;10.30;99.90;;;;;;5053273;28;20021;-75
2021/05/17 05:03:29;;;;;;;9.27;6.25;;;10.30;99.90;;;;;;5052974;28;20032;-75
2021/05/17 05:05:55;;;;;;;10.55;6.22;;;10.30;99.90;;;;;;5056945;28;20009;-75
2021/05/17 05:08:21;;;;;;;9.70;6.15;;;10.20;99.90;;;;;;5070316;28;20078;-75
2021/05/17 05:10:46;;;;;;;10.55;6.07;;;10.30;99.90;;;;;;5071121;28;20021;-75
2021/05/17 05:13:12;;;;;;;8.70;5.75;;;10.20;99.90;;;;;;5053894;28;20025;-75
2021/05/17 05:15:38;;;;;;;9.25;5.90;;;10.20;99.90;;;;;;5054199;28;20025;-75
2021/05/17 05:18:03;;;;;;;15.20;6.72;;;10.30;99.90;;;;;;5053006;28;20036;-75
2021/05/17 05:20:30;;;;;;;12.23;5.97;;;10.30;99.90;;;;;;5053107;28;20025;-76
2021/05/17 05:22:56;;;;;;;10.95;5.95;;;10.20;99.90;;;;;;5056561;28;20040;-75
2021/05/17 05:25:23;;;;;;;9.70;5.88;;;10.30;99.90;;;;;;5064773;28;20479;-80
2021/05/17 05:27:53;;;;;;;8.18;5.05;;;10.30;99.90;;;;;;5058025;28;20083;-75
2021/05/17 05:30:42;;;;;;;12.13;6.63;;;10.30;99.90;;;;;;5052218;28;20025;-75
2021/05/17 05:33:15;;;;;;;7.72;6.03;;;10.40;99.90;;;;;;5052600;28;20037;-75
2021/05/17 05:35:40;;;;;;;9.82;6.22;;;10.30;99.90;;;;;;5052789;28;20386;-75
2021/05/17 05:38:06;;;;;;;7.82;5.82;;;10.40;99.90;;;;;;5051684;28;20480;-74
2021/05/17 05:40:32;;;;;;;8.73;5.90;;;10.40;99.90;;;;;;5053217;28;20021;-75
2021/05/17 05:42:57;;;;;;;11.45;6.55;;;10.40;99.90;;;;;;5052934;28;20033;-75
2021/05/17 05:45:23;;;;;;;13.45;7.60;;;10.40;99.90;;;;;;5051736;28;20491;-75
2021/05/17 05:47:49;;;;;;;15.23;7.05;;;10.40;99.90;;;;;;5051850;28;20060;-75
2021/05/17 05:50:14;;;;;;;11.95;7.05;;;10.50;99.90;;;;;;5052968;28;20017;-75
2021/05/17 05:52:40;;;;;;;10.13;7.32;;;10.50;99.90;;;;;;5051826;28;20029;-74
2021/05/17 05:55:06;;;;;;;13.90;7.50;;;10.50;99.90;;;;;;5052963;28;20099;-75
2021/05/17 05:57:38;;;;;;;10.05;6.32;;;10.50;99.90;;;;;;5052720;28;20547;-74
2021/05/17 06:00:06;;;;;;;12.23;7.30;;;10.50;99.90;;;;;;5052790;28;20029;-74
2021/05/17 06:02:32;;;;;;;12.25;7.32;;;10.60;99.90;;;;;;5052712;28;20061;-74
2021/05/17 06:04:58;;;;;;;12.63;6.72;;;10.60;99.90;;;;;;5055754;28;20036;-80
2021/05/17 06:07:23;;;;;;;15.65;7.38;;;10.60;99.90;;;;;;5072606;28;20029;-76
2021/05/17 06:09:49;;;;;;;11.07;7.18;;;10.60;99.90;;;;;;5074800;28;20023;-75
2021/05/17 06:12:15;;;;;;;9.80;7.47;;;10.60;99.90;;;;;;5076017;28;20040;-76
2021/05/17 06:14:41;;;;;;;11.25;7.45;;;10.70;99.90;;;;;;5075171;28;20021;-76
2021/05/17 06:17:07;;;;;;;14.73;7.82;;;10.70;99.90;;;;;;5075524;28;20032;-75
2021/05/17 06:19:33;;;;;;;12.15;7.53;;;10.70;99.90;;;;;;5075517;28;20024;-75
2021/05/17 06:21:59;;;;;;;12.90;7.35;;;10.70;99.90;;;;;;5075467;28;20044;-76
2021/05/17 06:24:25;;;;;;;12.68;7.25;;;10.80;99.90;;;;;;5076523;28;20039;-76
2021/05/17 06:26:51;;;;;;;13.88;7.25;;;10.80;99.90;;;;;;5076460;28;20380;-76
2021/05/17 06:29:16;;;;;;;13.43;7.65;;;10.80;99.90;;;;;;5076547;28;20431;-75
2021/05/17 06:31:47;;;;;;;14.85;7.63;;;10.80;99.90;;;;;;5076550;28;20024;-75
2021/05/17 06:34:14;;;;;;;14.05;7.43;;;10.80;99.90;;;;;;5075919;28;20020;-75
2021/05/17 06:36:39;;;;;;;13.77;7.40;;;10.90;99.90;;;;;;5074356;28;20079;-75
2021/05/17 06:39:08;;;;;;;11.63;6.88;;;10.90;99.90;;;;;;5075942;28;20461;-75
2021/05/17 06:41:34;;;;;;;12.15;7.28;;;10.90;99.90;;;;;;5075871;28;20484;-75
2021/05/17 06:43:59;;;;;;;13.18;7.35;;;11.00;99.90;;;;;;5075545;28;20024;-75
2021/05/17 06:46:25;;;;;;;14.80;7.18;;;11.10;99.90;;;;;;5075684;28;20081;-76
2021/05/17 06:48:52;;;;;;;10.25;6.13;;;11.10;99.90;;;;;;5075763;28;20062;-78
2021/05/17 06:51:18;;;;;;;9.93;6.00;;;11.20;99.90;;;;;;5075714;28;20024;-75
2021/05/17 06:53:46;;;;;;;11.93;5.55;;;11.30;99.90;;;;;;5075713;28;20013;-75
2021/05/17 06:56:22;;;;;;;11.18;6.47;;;11.30;99.90;;;;;;5075555;28;20012;-75
2021/05/17 06:58:58;;;;;;;13.13;6.22;;;11.40;99.90;;;;;;5073316;28;20499;-75
2021/05/17 07:01:26;;;;;;;8.93;5.05;;;11.40;99.90;;;;;;5072083;28;20028;-78
2021/05/17 07:03:52;;;;;;;8.77;4.75;;;11.50;99.90;;;;;;5075858;28;20020;-78
2021/05/17 07:06:22;;;;;;;10.90;4.97;;;11.50;99.90;;;;;;5074257;28;20610;-76
2021/05/17 07:11:45;;;;;;;13.18;5.47;;;11.60;99.90;;;;;;5096045;28;20482;-75
2021/05/17 07:14:11;;;;;;;10.43;4.72;;;11.60;99.90;;;;;;5093236;28;20031;-75
2021/05/17 07:16:36;;;;;;;9.55;4.82;;;11.70;99.90;;;;;;5075338;28;20021;-75
2021/05/17 07:19:02;;;;;;;8.82;4.65;;;11.70;99.90;;;;;;5074625;28;20028;-76
2021/05/17 07:24:12;;;;;;;7.13;4.47;;;11.90;99.90;;;;;;5075322;28;20077;-76
2021/05/17 07:26:38;;;;;;;11.40;4.57;;;11.90;99.90;;;;;;5075376;28;20103;-75
2021/05/17 07:29:06;;;;;;;9.50;4.10;;;11.90;99.90;;;;;;5074808;28;20024;-76
2021/05/17 07:31:31;;;;;;;7.53;3.97;;;11.90;99.90;;;;;;5075170;28;20395;-78
2021/05/17 07:33:57;;;;;;;8.38;4.40;;;11.90;99.90;;;;;;5074654;28;20028;-76
2021/05/17 07:36:23;;;;;;;6.60;4.05;;;11.90;99.90;;;;;;5074602;28;20111;-75
2021/05/17 07:38:49;;;;;;;7.03;3.58;;;11.90;99.90;;;;;;5074684;28;20028;-74
2021/05/17 07:41:15;;;;;;;10.70;4.18;;;12.00;99.90;;;;;;5074701;28;20013;-75
2021/05/17 07:43:41;;;;;;;9.52;4.28;;;12.00;99.90;;;;;;5073164;28;20028;-74
2021/05/17 07:46:06;;;;;;;8.68;3.90;;;12.10;99.90;;;;;;5074434;28;20074;-75
2021/05/17 07:48:33;;;;;;;8.00;3.80;;;12.20;99.90;;;;;;5074566;28;20079;-75
2021/05/17 07:50:59;;;;;;;6.65;4.43;;;12.20;99.90;;;;;;5074418;28;20074;-75
2021/05/17 07:53:24;;;;;;;9.98;3.45;;;12.30;99.90;;;;;;5074929;28;20021;-75
2021/05/17 07:55:52;;;;;;;10.25;3.65;;;12.20;99.90;;;;;;5074668;28;20653;-74
2021/05/17 07:58:18;;;;;;;7.05;3.17;;;12.20;99.90;;;;;;5073233;28;20085;-74
2021/05/17 08:00:44;;;;;;;8.43;3.28;;;12.30;99.90;;;;;;5074234;28;20024;-75
2021/05/17 08:03:09;;;;;;;7.50;2.88;;;12.40;99.90;;;;;;5074473;28;20420;-74
2021/05/17 08:05:35;;;;;;;5.75;2.33;;;12.40;99.90;;;;;;5074489;28;20471;-74
2021/05/17 08:08:00;;;;;;;4.60;2.30;;;12.40;99.90;;;;;;5073456;28;20495;-75
2021/05/17 08:10:27;;;;;;;7.07;2.90;;;12.20;99.90;;;;;;5074610;28;20413;-74
2021/05/17 08:12:53;;;;;;;8.07;3.00;;;12.10;99.90;;;;;;5074539;28;20030;-74
2021/05/17 08:15:18;;;;;;;8.45;2.85;;;11.90;99.90;;;;;;5074180;28;20482;-74
2021/05/17 08:17:44;;;;;;;6.47;3.50;;;11.90;99.90;;;;;;5074387;28;20104;-74
2021/05/17 08:20:10;;;;;;;7.43;3.25;;;12.00;99.90;;;;;;5074338;28;20549;-74
2021/05/17 08:22:35;;;;;;;6.00;3.05;;;12.00;99.90;;;;;;5073006;28;20079;-75
2021/05/17 08:25:04;;;;;;;6.78;3.08;;;12.00;99.90;;;;;;5074131;28;20025;-74
2021/05/17 08:27:30;;;;;;;10.40;3.53;;;12.10;99.90;;;;;;5074255;28;20048;-75
2021/05/17 08:29:55;;;;;;;7.30;3.58;;;12.20;99.90;;;;;;5074075;28;20052;-75
2021/05/17 08:32:21;;;;;;;8.50;3.30;;;12.20;99.90;;;;;;5074261;28;20455;-74
2021/05/17 08:34:46;;;;;;;5.88;3.42;;;12.30;99.90;;;;;;5074027;28;20021;-75
2021/05/17 08:37:12;;;;;;;8.02;3.50;;;12.40;99.90;;;;;;5073891;28;20098;-75
2021/05/17 08:39:38;;;;;;;7.53;3.45;;;12.50;99.90;;;;;;5073880;28;20043;-75
2021/05/17 08:42:04;;;;;;;10.55;3.85;;;12.70;99.90;;;;;;5073481;28;20028;-75
2021/05/17 08:44:30;;;;;;;11.38;4.00;;;12.70;99.90;;;;;;5073792;28;20028;-75
2021/05/17 08:46:55;;;;;;;7.38;3.28;;;12.80;99.90;;;;;;5073108;28;20532;-75
2021/05/17 08:49:22;;;;;;;8.30;3.72;;;12.90;99.90;;;;;;5073816;28;20147;-75
2021/05/17 08:51:48;;;;;;;6.80;3.92;;;13.00;99.90;;;;;;5072774;28;20017;-75
2021/05/17 08:54:13;;;;;;;6.95;3.40;;;13.10;99.90;;;;;;5073287;28;20165;-74
2021/05/17 08:56:43;;;;;;;6.60;3.50;;;13.30;99.90;;;;;;5072434;28;20104;-75
2021/05/17 08:59:10;;;;;;;6.43;3.13;;;13.40;99.90;;;;;;5072371;28;20024;-75
2021/05/17 09:01:35;;;;;;;5.88;3.63;;;13.40;99.90;;;;;;5073033;28;20051;-75
2021/05/17 09:04:06;;;;;;;6.97;3.25;;;13.50;99.90;;;;;;5072232;28;20472;-75
2021/05/17 09:06:40;;;;;;;7.30;3.60;;;13.60;99.90;;;;;;5073070;28;20020;-75
2021/05/17 09:09:22;;;;;;;7.82;3.28;;;13.90;99.90;;;;;;5070618;28;20468;-75
2021/05/17 09:11:49;;;;;;;6.30;2.80;;;14.00;99.90;;;;;;5071376;28;20020;-80
2021/05/17 09:14:15;;;;;;;6.35;2.55;;;14.10;99.90;;;;;;5073123;28;20078;-78
2021/05/17 09:16:50;;;;;;;4.90;2.30;;;14.30;99.90;;;;;;5073115;28;20103;-75
2021/05/17 09:19:16;;;;;;;6.57;2.50;;;14.50;99.90;;;;;;5073439;28;20024;-75
2021/05/17 09:22:02;;;;;;;4.75;2.22;;;14.70;99.90;;;;;;5072423;28;20020;-75
2021/05/17 09:24:49;;;;;;;4.82;2.40;;;14.90;99.90;;;;;;5071138;28;20103;-75
2021/05/17 09:27:17;;;;;;;4.60;2.10;;;14.90;99.90;;;;;;5071993;28;20089;-75
2021/05/17 09:29:48;;;;;;;4.72;2.63;;;15.00;99.90;;;;;;5071960;28;20048;-75
2021/05/17 09:32:19;;;;;;;4.60;2.47;;;15.00;99.90;;;;;;5072972;28;20100;-75
2021/05/17 09:35:05;;;;;;;5.95;2.33;;;15.00;99.90;;;;;;5072918;28;20024;-75
2021/05/17 09:37:56;;;;;;;5.60;2.50;;;15.00;99.90;;;;;;5072710;28;20040;-75
2021/05/17 09:40:29;;;;;;;3.05;1.73;;;15.20;99.90;;;;;;5072348;28;20025;-75
2021/05/17 09:43:10;;;;;;;3.83;2.22;;;15.40;99.70;;;;;;5072252;28;20073;-75
2021/05/17 09:45:41;;;;;;;4.20;1.85;;;15.50;99.80;;;;;;5072826;28;20017;-75
2021/05/17 09:48:21;;;;;;;4.03;2.30;;;15.30;98.80;;;;;;5072945;28;20089;-75
2021/05/17 09:50:56;;;;;;;3.67;2.20;;;15.00;98.70;;;;;;5072948;28;20042;-75
2021/05/17 09:53:27;;;;;;;5.45;2.00;;;14.60;99.80;;;;;;5072978;28;20063;-74
2021/05/17 09:55:53;;;;;;;5.53;2.90;;;14.30;99.90;;;;;;5071629;28;20020;-74
2021/05/17 09:58:32;;;;;;;3.45;1.75;;;14.00;99.90;;;;;;5071624;28;20035;-75
2021/05/17 10:01:24;;;;;;;5.00;2.88;;;13.80;99.90;;;;;;5072869;28;20052;-75
2021/05/17 10:03:54;;;;;;;4.45;1.98;;;13.50;99.90;;;;;;5070643;28;20056;-75
2021/05/17 10:06:24;;;;;;;7.40;2.63;;;13.50;99.90;;;;;;5071431;28;20024;-75
2021/05/17 10:08:50;;;;;;;4.07;2.40;;;13.60;99.90;;;;;;5072649;28;20082;-75
2021/05/17 10:11:17;;;;;;;7.22;2.97;;;13.70;99.90;;;;;;5072772;28;20020;-75
2021/05/17 10:13:43;;;;;;;4.53;2.53;;;14.00;99.90;;;;;;5072661;28;20039;-75
2021/05/17 10:16:11;;;;;;;4.28;2.97;;;14.30;99.90;;;;;;5072544;28;20024;-75
2021/05/17 10:18:38;;;;;;;6.57;2.95;;;14.50;99.90;;;;;;5072778;28;20032;-74
2021/05/17 10:21:08;;;;;;;5.68;2.35;;;14.40;99.90;;;;;;5071905;28;20032;-74
2021/05/17 10:23:36;;;;;;;5.32;1.60;;;14.40;99.90;;;;;;5072986;28;20021;-75
2021/05/17 10:26:15;;;;;;;2.75;1.27;;;14.20;99.90;;;;;;5072194;28;20027;-74
2021/05/17 10:28:47;;;;;;;5.27;1.60;;;14.00;99.90;;;;;;5072305;28;20043;-75
2021/05/17 10:31:18;;;;;;;4.63;1.80;;;13.70;99.90;;;;;;5071126;28;20017;-75
2021/05/17 10:33:58;;;;;;;4.30;2.10;;;13.50;99.90;;;;;;5072133;28;20032;-74
2021/05/17 10:36:45;;;;;;;2.33;1.63;;;13.30;99.90;;;;;;5071707;28;20044;-82
2021/05/17 10:39:15;;;;;;;4.78;2.10;;;13.10;99.90;;;;;;5073474;28;20107;-80
2021/05/17 10:42:22;;;;;;;4.38;2.38;;;13.00;99.90;;;;;;5073209;28;20051;-76
2021/05/17 10:48:15;;;;;;;4.40;3.03;;;12.60;99.90;;;;;;5052354;28;20024;-76
2021/05/17 10:50:48;;;;;;;5.95;3.83;;;12.60;99.90;;;;;;5067436;28;20494;-76
2021/05/17 10:53:54;;;;;;;4.82;2.42;;;12.70;99.90;;;;;;5065242;28;20039;-75
2021/05/17 10:56:43;;;;;;;2.85;1.17;;;12.70;99.90;;;;;;5090617;28;20024;-74
2021/05/17 11:02:08;;;;;;;1.80;0.90;;;12.40;99.90;;;;;;5073840;28;20781;-74
2021/05/17 11:04:49;;;;;;;1.75;1.10;;;12.40;99.90;;;;;;5073632;28;20029;-74
2021/05/17 11:07:16;;;;;;;1.83;1.10;;;12.50;99.90;;;;;;5073780;28;20024;-74
2021/05/17 11:09:47;;;;;;;2.85;1.33;;;12.50;99.90;;;;;;5075189;28;20016;-74
2021/05/17 11:12:28;;;;;;;2.65;1.70;;;12.60;99.90;;;;;;5075177;28;20025;-74
2021/05/17 11:15:06;;;;;;;5.47;3.08;;;12.70;99.90;;;;;;5073414;28;20015;-74
2021/05/17 11:17:54;;;;;;;3.63;2.83;;;12.80;99.90;;;;;;5088712;28;20032;-74
2021/05/17 11:20:38;;;;;;;5.47;3.40;;;12.80;99.90;;;;;;5089235;28;20024;-74
2021/05/17 11:23:13;;;;;;;6.65;3.78;;;12.80;99.90;;;;;;5074443;28;20048;-74
2021/05/17 11:31:15;;;;;;;8.50;4.07;;;12.90;99.90;;;;;;5075112;28;20017;-74
2021/05/17 11:33:49;;;;;;;5.25;4.07;;;12.90;99.90;;;;;;5074777;28;20017;-74
2021/05/17 11:36:24;;;;;;;7.32;3.78;;;13.00;99.90;;;;;;5075022;28;20427;-74
2021/05/17 11:39:11;;;;;;;5.45;3.97;;;13.10;99.90;;;;;;5075257;28;20051;-74
2021/05/17 11:41:45;;;;;;;5.28;3.90;;;13.30;99.90;;;;;;5074387;28;20028;-74
2021/05/17 11:44:23;;;;;;;5.10;3.78;;;13.50;99.90;;;;;;5074641;28;20024;-74
2021/05/17 11:46:56;;;;;;;4.00;3.40;;;13.50;99.90;;;;;;5073848;28;20045;-74
2021/05/17 11:49:23;;;;;;;3.88;2.40;;;13.70;99.90;;;;;;5074709;28;20426;-74
2021/05/17 11:51:51;;;;;;;3.47;2.50;;;13.80;99.90;;;;;;5074156;28;20024;-74
2021/05/17 11:54:19;;;;;;;3.00;2.15;;;13.80;99.90;;;;;;5074593;28;20055;-74
2021/05/17 11:56:47;;;;;;;2.78;2.13;;;13.80;99.90;;;;;;5072836;28;20033;-74
2021/05/17 11:59:17;;;;;;;2.35;2.15;;;13.90;99.90;;;;;;5074296;28;20028;-74
2021/05/17 12:01:45;;;;;;;2.70;2.03;;;14.00;99.90;;;;;;5074226;28;20116;-74
2021/05/17 12:04:16;;;;;;;4.15;2.92;;;14.20;99.90;;;;;;5074537;28;20353;-74
2021/05/17 12:06:47;;;;;;;5.82;3.20;;;14.20;99.90;;;;;;5074163;28;20052;-74
2021/05/17 12:09:45;;;;;;;3.80;3.33;;;14.00;99.90;;;;;;5074706;28;20017;-74
2021/05/17 12:12:19;;;;;;;3.45;2.88;;;14.00;99.90;;;;;;5074322;28;20036;-74
2021/05/17 12:14:49;;;;;;;3.25;2.92;;;13.90;99.90;;;;;;5074597;28;20076;-74
2021/05/17 12:17:17;;;;;;;4.22;3.10;;;13.80;99.90;;;;;;5074272;28;20020;-74
2021/05/17 12:19:54;;;;;;;4.90;4.40;;;13.80;99.90;;;;;;5053978;28;20492;-74
2021/05/17 12:22:27;;;;;;;6.40;4.82;;;13.70;99.90;;;;;;5058137;28;20029;-74
2021/05/17 12:24:57;;;;;;;7.13;6.43;;;13.60;99.90;;;;;;5071238;28;20024;-74
2021/05/17 12:27:23;;;;;;;7.15;6.20;;;13.30;99.90;;;;;;5074186;28;20013;-74
2021/05/17 12:29:56;;;;;;;8.73;7.30;;;13.00;99.90;;;;;;5074229;28;20025;-74
2021/05/17 12:32:43;;;;;;;8.23;7.32;;;12.80;99.90;;;;;;5074214;28;20029;-74
2021/05/17 12:35:21;;;;;;;10.80;9.70;;;12.90;99.90;;;;;;5072593;28;20070;-74
2021/05/17 12:37:52;;;;;;;10.23;8.93;;;12.80;99.90;;;;;;5074090;28;20032;-74
2021/05/17 12:40:36;;;;;;;8.60;7.35;;;12.70;99.90;;;;;;5071713;28;20043;-74
2021/05/17 12:43:11;;;;;;;7.22;6.53;;;12.70;99.90;;;;;;5071964;28;20028;-74
2021/05/17 12:45:43;;;;;;;6.68;5.32;;;12.70;99.90;;;;;;5073358;28;20525;-74
2021/05/17 12:48:25;;;;;;;6.15;5.55;;;12.80;99.90;;;;;;5073736;28;20033;-74
2021/05/17 12:50:56;;;;;;;9.32;6.30;;;12.80;99.90;;;;;;5072769;28;20013;-74
2021/05/17 12:53:27;;;;;;;6.18;5.65;;;12.80;99.90;;;;;;5073373;28;20100;-74
2021/05/17 12:55:56;;;;;;;6.35;5.72;;;12.80;99.90;;;;;;5072749;28;20052;-73
2021/05/17 12:58:39;;;;;;;7.57;6.70;;;12.80;99.90;;;;;;5094026;28;20032;-74
2021/05/17 13:01:15;;;;;;;6.93;6.22;;;12.80;99.90;;;;;;5094006;28;20103;-74
2021/05/17 13:03:46;;;;;;;8.73;6.63;;;13.00;99.90;;;;;;5093705;28;20059;-74
2021/05/17 13:06:23;;;;;;;6.80;6.10;;;13.10;99.90;;;;;;5087032;28;20025;-74
2021/05/17 13:09:06;;;;;;;7.07;5.80;;;13.50;99.90;;;;;;5073129;28;20028;-73
2021/05/17 13:11:31;;;;;;;5.72;5.13;;;13.80;99.90;;;;;;5070418;28;20017;-75
2021/05/17 13:14:03;;;;;;;4.72;4.30;;;13.90;99.90;;;;;;5073408;28;20020;-74
2021/05/17 13:17:00;;;;;;;5.47;4.97;;;14.10;99.90;;;;;;5073082;28;20492;-74
2021/05/17 13:19:37;;;;;;;7.43;5.13;;;14.20;99.90;;;;;;5064988;28;20056;-74
2021/05/17 13:31:01;;;;;;;5.75;4.60;;;17.10;99.90;;;;;;5055554;28;20048;-74
2021/05/17 13:33:43;;;;;;;5.78;3.88;;;17.40;99.10;;;;;;5053406;28;20473;-73